createdAt,value
2023-03-17T00:01:56.856Z,2.70
2023-03-17T00:04:27.638Z,2.67
2023-03-17T00:06:56.651Z,2.87
2023-03-17T00:09:25.489Z,2.60
2023-03-17T00:11:53.584Z,2.40
2023-03-17T00:14:21.772Z,2.43
2023-03-17T00:16:52.544Z,2.37
2023-03-17T00:19:29.892Z,2.70
2023-03-17T00:21:59.145Z,2.53
2023-03-17T00:24:27.445Z,2.30
2023-03-17T00:26:55.493Z,2.70
2023-03-17T00:29:24.041Z,2.20
2023-03-17T00:31:52.071Z,2.13
2023-03-17T00:34:23.983Z,2.60
2023-03-17T00:36:53.547Z,2.53
2023-03-17T00:39:25.279Z,2.10
2023-03-17T00:41:55.638Z,2.40
2023-03-17T00:44:24.087Z,2.30
2023-03-17T00:46:52.542Z,2.57
2023-03-17T00:49:24.141Z,2.70
2023-03-17T00:51:54.282Z,2.63
2023-03-17T00:54:24.144Z,2.83
2023-03-17T00:56:53.647Z,2.90
2023-03-17T00:59:29.804Z,2.83
2023-03-17T01:02:00.340Z,3.10
2023-03-17T01:04:35.610Z,3.10
2023-03-17T01:07:06.862Z,3.17
2023-03-17T01:09:34.992Z,2.40
2023-03-17T01:12:03.040Z,3.20
2023-03-17T01:14:31.103Z,3.20
2023-03-17T01:17:02.113Z,2.87
2023-03-17T01:19:30.385Z,2.80
2023-03-17T01:21:59.732Z,2.97
2023-03-17T01:24:29.940Z,3.40
2023-03-17T01:26:58.123Z,2.77
2023-03-17T01:29:27.058Z,3.47
2023-03-17T01:31:55.552Z,2.60
2023-03-17T01:34:23.946Z,3.00
2023-03-17T01:36:53.635Z,2.90
2023-03-17T01:39:21.798Z,2.67
2023-03-17T01:41:56.650Z,3.10
2023-03-17T01:44:25.670Z,2.63
2023-03-17T01:46:54.489Z,2.60
2023-03-17T01:49:29.301Z,2.57
2023-03-17T01:52:04.806Z,2.83
2023-03-17T01:54:40.729Z,2.67
2023-03-17T01:57:18.367Z,2.07
2023-03-17T01:59:51.380Z,3.17
2023-03-17T02:02:46.406Z,2.67
2023-03-17T02:05:18.806Z,2.63
2023-03-17T02:07:47.121Z,2.60
2023-03-17T02:10:19.505Z,2.50
2023-03-17T02:12:53.567Z,2.50
2023-03-17T02:15:22.650Z,2.80
2023-03-17T02:17:51.806Z,2.73
2023-03-17T02:21:17.367Z,2.50
2023-03-17T02:23:46.905Z,2.43
2023-03-17T02:26:15.143Z,2.40
2023-03-17T02:28:46.113Z,2.20
2023-03-17T02:31:15.494Z,2.07
2023-03-17T02:33:45.186Z,2.43
2023-03-17T02:36:13.880Z,2.10
2023-03-17T02:38:42.190Z,2.10
2023-03-17T02:41:11.778Z,2.10
2023-03-17T02:43:41.306Z,2.20
2023-03-17T02:46:09.568Z,2.10
2023-03-17T02:48:39.655Z,2.00
2023-03-17T02:51:08.425Z,1.90
2023-03-17T02:53:36.630Z,2.10
2023-03-17T02:56:05.594Z,2.40
2023-03-17T02:58:34.951Z,2.40
2023-03-17T03:01:03.606Z,2.20
2023-03-17T03:03:32.100Z,2.00
2023-03-17T03:06:03.032Z,2.00
2023-03-17T03:08:32.066Z,1.87
2023-03-17T03:11:02.487Z,2.40
2023-03-17T03:13:30.848Z,2.13
2023-03-17T03:16:00.406Z,2.33
2023-03-17T03:18:29.006Z,2.30
2023-03-17T03:20:57.085Z,2.50
2023-03-17T03:23:25.072Z,1.90
2023-03-17T03:25:53.141Z,2.17
2023-03-17T03:28:21.394Z,2.10
2023-03-17T03:30:49.872Z,2.13
2023-03-17T03:33:19.830Z,2.57
2023-03-17T03:35:48.296Z,2.07
2023-03-17T03:38:16.548Z,1.63
2023-03-17T03:40:45.781Z,2.00
2023-03-17T03:43:22.760Z,2.00
2023-03-17T03:45:52.060Z,1.80
2023-03-17T03:48:22.684Z,1.83
2023-03-17T03:50:50.996Z,2.30
2023-03-17T03:53:19.077Z,1.97
2023-03-17T03:55:47.360Z,2.10
2023-03-17T03:58:15.874Z,1.83
2023-03-17T04:00:44.135Z,1.80
2023-03-17T04:03:12.276Z,1.97
2023-03-17T04:05:41.830Z,1.93
2023-03-17T04:08:11.064Z,1.70
2023-03-17T04:10:39.087Z,1.83
2023-03-17T04:13:08.402Z,2.17
2023-03-17T04:15:36.614Z,1.60
2023-03-17T04:18:05.242Z,1.97
2023-03-17T04:20:33.467Z,1.87
2023-03-17T04:23:02.942Z,1.70
2023-03-17T04:25:31.436Z,1.60
2023-03-17T04:27:59.726Z,1.77
2023-03-17T04:30:28.019Z,1.70
2023-03-17T04:32:56.241Z,1.90
2023-03-17T04:35:24.341Z,1.93
2023-03-17T04:37:52.496Z,1.60
2023-03-17T04:40:22.513Z,1.67
2023-03-17T04:42:51.115Z,1.53
2023-03-17T04:45:19.344Z,1.80
2023-03-17T04:47:50.961Z,2.10
2023-03-17T04:50:19.214Z,1.83
2023-03-17T04:52:47.292Z,1.70
2023-03-17T04:55:15.482Z,1.73
2023-03-17T04:57:45.173Z,2.20
2023-03-17T05:00:15.708Z,1.70
2023-03-17T05:02:44.129Z,2.07
2023-03-17T05:05:12.247Z,2.07
2023-03-17T05:07:41.531Z,1.80
2023-03-17T05:10:12.254Z,1.83
2023-03-17T05:12:40.255Z,1.80
2023-03-17T05:15:11.060Z,1.80
2023-03-17T05:17:39.113Z,1.93
2023-03-17T05:20:09.405Z,2.07
2023-03-17T05:22:37.999Z,1.63
2023-03-17T05:25:06.913Z,1.80
2023-03-17T05:27:35.424Z,1.50
2023-03-17T05:30:04.304Z,1.73
2023-03-17T05:32:33.894Z,2.00
2023-03-17T05:35:02.211Z,3.30
2023-03-17T05:37:30.390Z,3.00
2023-03-17T05:39:59.389Z,1.73
2023-03-17T05:42:27.455Z,1.60
2023-03-17T05:44:55.488Z,1.77
2023-03-17T05:47:23.802Z,1.47
2023-03-17T05:49:53.982Z,1.83
2023-03-17T05:52:22.064Z,2.00
2023-03-17T05:54:51.927Z,1.37
2023-03-17T05:57:19.956Z,1.83
2023-03-17T05:59:48.618Z,1.70
2023-03-17T06:02:16.704Z,1.70
2023-03-17T06:04:44.748Z,1.73
2023-03-17T06:07:14.386Z,1.43
2023-03-17T06:09:42.635Z,1.63
2023-03-17T06:12:11.379Z,1.73
2023-03-17T06:14:39.432Z,1.83
2023-03-17T06:17:07.765Z,2.93
2023-03-17T06:19:36.394Z,1.67
2023-03-17T06:22:04.707Z,1.80
2023-03-17T06:24:34.465Z,2.07
2023-03-17T06:27:02.552Z,2.00
2023-03-17T06:29:30.841Z,1.97
2023-03-17T06:32:09.191Z,2.33
2023-03-17T06:34:45.556Z,1.60
2023-03-17T06:37:13.769Z,2.00
2023-03-17T06:39:43.473Z,1.70
2023-03-17T06:42:11.911Z,1.40
2023-03-17T06:44:39.888Z,1.60
2023-03-17T06:47:08.699Z,1.50
2023-03-17T06:49:37.009Z,1.60
2023-03-17T06:52:05.436Z,1.50
2023-03-17T06:54:33.464Z,1.70
2023-03-17T06:57:03.026Z,1.80
2023-03-17T06:59:31.544Z,1.20
2023-03-17T07:02:00.395Z,1.33
2023-03-17T07:04:28.691Z,1.83
2023-03-17T07:06:57.702Z,1.00
2023-03-17T07:09:25.771Z,2.20
2023-03-17T07:11:53.805Z,1.40
2023-03-17T07:14:23.101Z,1.80
2023-03-17T07:16:51.381Z,2.83
2023-03-17T07:19:24.622Z,1.60
2023-03-17T07:21:52.685Z,1.60
2023-03-17T07:24:20.786Z,2.00
2023-03-17T07:26:49.067Z,2.00
2023-03-17T07:29:17.538Z,2.57
2023-03-17T07:31:47.130Z,2.53
2023-03-17T07:34:15.491Z,2.00
2023-03-17T07:36:43.862Z,1.83
2023-03-17T07:39:12.784Z,1.90
2023-03-17T07:41:41.370Z,2.20
2023-03-17T07:44:12.567Z,1.90
2023-03-17T07:46:41.049Z,2.20
2023-03-17T07:49:16.337Z,1.87
2023-03-17T07:51:44.454Z,1.77
2023-03-17T07:54:15.092Z,2.07
2023-03-17T07:56:43.553Z,1.77
2023-03-17T07:59:12.042Z,1.80
2023-03-17T08:01:40.948Z,2.10
2023-03-17T08:04:10.833Z,1.70
2023-03-17T08:06:41.714Z,1.93
2023-03-17T08:09:12.016Z,2.07
2023-03-17T08:11:40.745Z,2.00
2023-03-17T08:14:09.510Z,1.73
2023-03-17T08:16:37.669Z,1.97
2023-03-17T08:19:06.661Z,1.77
2023-03-17T08:21:35.124Z,2.00
2023-03-17T08:24:05.837Z,1.97
2023-03-17T08:26:34.381Z,1.97
2023-03-17T08:29:04.496Z,2.03
2023-03-17T08:31:35.721Z,2.30
2023-03-17T08:34:04.929Z,1.80
2023-03-17T08:36:33.281Z,1.90
2023-03-17T08:39:01.957Z,1.80
2023-03-17T08:41:32.083Z,2.17
2023-03-17T08:44:00.202Z,2.00
2023-03-17T08:46:32.454Z,1.70
2023-03-17T08:49:02.024Z,1.90
2023-03-17T08:51:34.241Z,1.83
2023-03-17T08:54:02.392Z,1.73
2023-03-17T08:56:32.050Z,1.30
2023-03-17T08:59:00.447Z,1.53
2023-03-17T09:01:28.875Z,1.70
2023-03-17T09:03:57.399Z,1.33
2023-03-17T09:06:27.570Z,1.60
2023-03-17T09:08:56.027Z,1.93
2023-03-17T09:11:26.876Z,1.87
2023-03-17T09:13:56.953Z,2.13
2023-03-17T09:16:26.898Z,1.50
2023-03-17T09:18:55.200Z,1.80
2023-03-17T09:21:23.641Z,1.90
2023-03-17T09:23:51.984Z,1.80
2023-03-17T09:26:20.449Z,1.33
2023-03-17T09:28:48.925Z,1.60
2023-03-17T09:31:18.673Z,1.67
2023-03-17T09:33:47.453Z,1.67
2023-03-17T09:36:15.611Z,1.83
2023-03-17T09:38:43.815Z,1.33
2023-03-17T09:41:42.564Z,1.57
2023-03-17T09:44:22.941Z,1.70
2023-03-17T09:47:04.304Z,1.80
2023-03-17T09:49:44.702Z,1.70
2023-03-17T09:52:15.828Z,1.53
2023-03-17T09:54:46.467Z,1.50
2023-03-17T09:57:18.072Z,1.73
2023-03-17T09:59:51.764Z,1.40
2023-03-17T10:02:26.948Z,1.27
2023-03-17T10:04:56.128Z,1.50
2023-03-17T10:07:35.058Z,1.17
2023-03-17T10:10:13.451Z,1.40
2023-03-17T10:12:51.432Z,1.70
2023-03-17T10:15:38.317Z,1.60
2023-03-17T10:18:16.637Z,1.47
2023-03-17T10:20:53.261Z,1.40
2023-03-17T10:23:26.511Z,1.30
2023-03-17T10:25:58.311Z,1.63
2023-03-17T10:28:30.733Z,1.37
2023-03-17T10:31:12.600Z,1.43
2023-03-17T10:33:42.309Z,1.30
2023-03-17T10:36:12.437Z,1.57
2023-03-17T10:38:40.727Z,1.60
2023-03-17T10:41:14.769Z,1.40
2023-03-17T10:43:47.107Z,1.50
2023-03-17T10:46:22.144Z,1.40
2023-03-17T10:48:58.211Z,1.20
2023-03-17T10:51:32.296Z,1.40
2023-03-17T10:54:03.890Z,1.23
2023-03-17T10:56:43.754Z,1.40
2023-03-17T10:59:20.551Z,1.20
2023-03-17T11:01:54.168Z,1.20
2023-03-17T11:04:32.894Z,1.30
2023-03-17T11:07:07.670Z,1.20
2023-03-17T11:09:37.996Z,1.40
2023-03-17T11:12:19.971Z,1.27
2023-03-17T11:14:50.230Z,1.80
2023-03-17T11:17:28.968Z,2.03
2023-03-17T11:20:16.813Z,1.50
2023-03-17T11:22:53.592Z,2.13
2023-03-17T11:25:23.472Z,2.17
2023-03-17T11:28:00.104Z,2.20
2023-03-17T11:30:35.838Z,2.20
2023-03-17T11:33:14.727Z,2.07
2023-03-17T11:35:55.916Z,1.97
2023-03-17T11:38:29.070Z,2.00
2023-03-17T11:41:36.911Z,2.20
2023-03-17T11:44:57.669Z,2.30
2023-03-17T11:47:43.924Z,2.20
2023-03-17T11:50:28.211Z,2.20
2023-03-17T11:53:19.733Z,2.60
2023-03-17T11:55:51.677Z,1.67
2023-03-17T11:58:30.364Z,2.00
2023-03-17T12:01:01.462Z,2.30
2023-03-17T12:03:39.351Z,2.70
2023-03-17T12:06:17.965Z,2.73
2023-03-17T12:08:54.466Z,2.00
2023-03-17T12:11:29.714Z,2.70
2023-03-17T12:14:05.923Z,2.73
2023-03-17T12:16:45.862Z,2.97
2023-03-17T12:19:19.375Z,3.00
2023-03-17T12:21:54.142Z,2.93
2023-03-17T12:24:30.580Z,2.87
2023-03-17T12:27:03.735Z,2.80
2023-03-17T12:29:43.496Z,2.90
2023-03-17T12:32:20.911Z,2.67
2023-03-17T12:34:57.065Z,2.67
2023-03-17T12:37:30.048Z,3.03
2023-03-17T12:40:07.153Z,2.37
2023-03-17T12:42:43.449Z,2.40
2023-03-17T12:46:01.113Z,3.10
2023-03-17T12:49:03.175Z,2.13
2023-03-17T12:51:55.196Z,2.20
2023-03-17T12:54:28.773Z,2.00
2023-03-17T12:57:07.657Z,1.80
2023-03-17T12:59:37.556Z,2.10
2023-03-17T13:02:19.235Z,2.20
2023-03-17T13:04:58.125Z,2.03
2023-03-17T13:07:32.500Z,1.83
2023-03-17T13:10:40.015Z,1.90
2023-03-17T13:13:28.122Z,1.70
2023-03-17T13:16:00.440Z,1.70
2023-03-17T13:18:51.134Z,1.80
2023-03-17T13:21:26.328Z,1.83
2023-03-17T13:24:20.430Z,1.63
2023-03-17T13:26:56.351Z,2.40
2023-03-17T13:29:48.832Z,1.80
2023-03-17T13:32:39.205Z,1.83
2023-03-17T13:35:26.283Z,1.47
2023-03-17T13:38:39.722Z,1.70
2023-03-17T13:41:38.589Z,1.50
2023-03-17T13:44:22.412Z,1.40
2023-03-17T13:46:53.003Z,1.70
2023-03-17T13:49:28.218Z,1.73
2023-03-17T13:52:02.854Z,1.63
2023-03-17T13:54:34.786Z,1.80
2023-03-17T13:57:27.645Z,1.70
2023-03-17T14:00:03.841Z,1.80
2023-03-17T14:02:39.008Z,1.80
2023-03-17T14:05:09.735Z,1.80
2023-03-17T14:07:49.270Z,1.73
2023-03-17T14:10:21.821Z,1.70
2023-03-17T14:12:57.757Z,1.77
2023-03-17T14:15:32.415Z,1.70
2023-03-17T14:18:08.707Z,1.40
2023-03-17T14:20:36.845Z,1.90
2023-03-17T14:23:07.261Z,1.47
2023-03-17T14:25:37.552Z,1.60
2023-03-17T14:28:11.177Z,1.87
2023-03-17T14:30:40.542Z,1.53
2023-03-17T14:33:23.447Z,1.50
2023-03-17T14:35:54.295Z,1.33
2023-03-17T14:38:27.668Z,1.50
2023-03-17T14:41:06.180Z,1.60
2023-03-17T14:43:36.592Z,1.77
2023-03-17T14:46:07.567Z,2.17
2023-03-17T14:48:42.311Z,1.67
2023-03-17T14:51:19.094Z,2.00
2023-03-17T14:53:47.382Z,1.50
2023-03-17T14:56:15.860Z,2.00
2023-03-17T14:58:47.829Z,1.80
2023-03-17T15:01:19.502Z,1.80
2023-03-17T15:03:57.338Z,1.50
2023-03-17T15:06:28.276Z,1.80
2023-03-17T15:09:00.752Z,1.43
2023-03-17T15:11:38.189Z,1.70
2023-03-17T15:14:21.193Z,1.60
2023-03-17T15:16:51.773Z,1.13
2023-03-17T15:19:27.679Z,1.30
2023-03-17T15:22:00.246Z,1.37
2023-03-17T15:24:38.871Z,4.30
2023-03-17T15:27:15.189Z,3.00
2023-03-17T15:29:43.356Z,1.93
2023-03-17T15:32:15.197Z,2.30
2023-03-17T15:34:44.768Z,2.10
2023-03-17T15:37:19.724Z,2.30
2023-03-17T15:39:48.704Z,1.70
2023-03-17T15:42:21.760Z,1.67
2023-03-17T15:44:49.863Z,1.57
2023-03-17T15:47:20.958Z,1.80
2023-03-17T15:49:51.683Z,1.50
2023-03-17T15:52:24.818Z,1.50
2023-03-17T15:54:54.174Z,1.60
2023-03-17T15:57:22.270Z,1.50
2023-03-17T15:59:50.986Z,1.40
2023-03-17T16:02:29.816Z,1.70
2023-03-17T16:04:59.990Z,1.53
2023-03-17T16:07:28.348Z,1.20
2023-03-17T16:09:56.788Z,1.50
2023-03-17T16:12:25.818Z,1.63
2023-03-17T16:14:53.834Z,1.83
2023-03-17T16:17:28.870Z,1.40
2023-03-17T16:19:59.662Z,1.37
2023-03-17T16:22:40.510Z,1.67
2023-03-17T16:25:21.378Z,1.43
2023-03-17T16:27:50.271Z,1.70
2023-03-17T16:30:21.215Z,1.50
2023-03-17T16:32:50.636Z,1.13
2023-03-17T16:35:22.356Z,1.60
2023-03-17T16:37:54.153Z,1.57
2023-03-17T16:40:26.456Z,2.23
2023-03-17T16:42:56.927Z,1.70
2023-03-17T16:45:29.726Z,1.50
2023-03-17T16:47:58.695Z,1.60
2023-03-17T16:50:31.759Z,1.53
2023-03-17T16:53:00.812Z,1.63
2023-03-17T16:55:30.857Z,1.60
2023-03-17T16:58:04.337Z,1.37
2023-03-17T17:00:33.196Z,1.70
2023-03-17T17:03:01.767Z,2.10
2023-03-17T17:05:32.691Z,2.40
2023-03-17T17:08:01.254Z,2.83
2023-03-17T17:10:32.657Z,2.63
2023-03-17T17:13:01.861Z,2.37
2023-03-17T17:15:31.816Z,7.10
2023-03-17T17:18:04.846Z,5.70
2023-03-17T17:20:37.625Z,5.67
2023-03-17T17:23:08.089Z,3.70
2023-03-17T17:25:36.190Z,3.60
2023-03-17T17:28:04.844Z,5.73
2023-03-17T17:30:33.992Z,3.57
2023-03-17T17:33:03.090Z,3.87
2023-03-17T17:35:34.667Z,3.43
2023-03-17T17:38:03.581Z,2.80
2023-03-17T17:40:32.497Z,2.40
2023-03-17T17:43:00.903Z,3.00
2023-03-17T17:45:29.102Z,2.80
2023-03-17T17:47:57.253Z,2.53
2023-03-17T17:50:28.756Z,2.73
2023-03-17T17:53:04.772Z,2.10
2023-03-17T17:55:34.218Z,2.40
2023-03-17T17:58:02.566Z,2.03
2023-03-17T18:00:31.123Z,2.33
2023-03-17T18:02:59.633Z,2.10
2023-03-17T18:05:27.940Z,2.23
2023-03-17T18:07:58.234Z,2.20
2023-03-17T18:10:27.364Z,3.37
2023-03-17T18:12:56.122Z,4.07
2023-03-17T18:15:25.826Z,4.73
2023-03-17T18:17:54.364Z,5.60
2023-03-17T18:20:24.146Z,3.87
2023-03-17T18:22:53.017Z,3.93
2023-03-17T18:25:22.400Z,2.50
2023-03-17T18:27:50.660Z,2.60
2023-03-17T18:30:24.779Z,2.07
2023-03-17T18:32:56.248Z,1.97
2023-03-17T18:35:27.008Z,2.67
2023-03-17T18:37:56.990Z,2.33
2023-03-17T18:40:27.169Z,3.20
2023-03-17T18:42:55.780Z,2.77
2023-03-17T18:45:24.205Z,2.40
2023-03-17T18:47:52.348Z,2.17
2023-03-17T18:50:21.924Z,2.37
2023-03-17T18:52:50.674Z,2.37
2023-03-17T18:55:19.163Z,2.47
2023-03-17T18:57:48.675Z,2.50
2023-03-17T19:00:18.546Z,2.50
2023-03-17T19:02:47.838Z,2.83
2023-03-17T19:05:16.349Z,2.40
2023-03-17T19:07:44.451Z,2.77
2023-03-17T19:10:14.444Z,2.67
2023-03-17T19:12:43.531Z,2.27
2023-03-17T19:15:15.732Z,2.20
2023-03-17T19:17:44.027Z,2.40
2023-03-17T19:20:14.952Z,1.90
2023-03-17T19:22:43.705Z,2.07
2023-03-17T19:25:12.216Z,1.97
2023-03-17T19:27:41.245Z,2.37
2023-03-17T19:30:15.785Z,2.27
2023-03-17T19:32:43.971Z,3.00
2023-03-17T19:35:12.645Z,2.83
2023-03-17T19:37:40.689Z,3.00
2023-03-17T19:40:13.251Z,2.73
2023-03-17T19:42:41.579Z,2.83
2023-03-17T19:45:12.504Z,4.53
2023-03-17T19:47:41.079Z,3.20
2023-03-17T19:50:11.151Z,3.47
2023-03-17T19:52:39.209Z,3.57
2023-03-17T19:55:10.661Z,3.30
2023-03-17T19:57:38.779Z,3.57
2023-03-17T20:00:11.900Z,3.27
2023-03-17T20:02:41.819Z,3.57
2023-03-17T20:05:11.402Z,3.43
2023-03-17T20:07:39.571Z,2.83
2023-03-17T20:10:10.045Z,2.50
2023-03-17T20:12:39.224Z,2.60
2023-03-17T20:15:12.854Z,3.17
2023-03-17T20:17:42.917Z,2.70
2023-03-17T20:20:12.924Z,2.63
2023-03-17T20:22:43.566Z,2.63
2023-03-17T20:25:12.301Z,2.03
2023-03-17T20:27:41.577Z,2.40
2023-03-17T20:30:12.143Z,1.90
2023-03-17T20:32:42.209Z,2.40
2023-03-17T20:35:11.064Z,2.10
2023-03-17T20:37:39.858Z,2.73
2023-03-17T20:40:10.873Z,2.57
2023-03-17T20:42:38.881Z,2.00
2023-03-17T20:45:08.861Z,2.00
2023-03-17T20:47:37.482Z,2.13
2023-03-17T20:50:08.727Z,2.57
2023-03-17T20:52:37.625Z,2.40
2023-03-17T20:55:06.905Z,2.60
2023-03-17T20:57:37.955Z,3.67
2023-03-17T21:00:10.718Z,2.57
2023-03-17T21:02:39.299Z,2.70
2023-03-17T21:05:09.413Z,3.23
2023-03-17T21:07:37.629Z,3.33
2023-03-17T21:10:06.525Z,2.83
2023-03-17T21:12:34.801Z,2.37
2023-03-17T21:15:03.542Z,2.80
2023-03-17T21:17:32.527Z,2.40
2023-03-17T21:20:01.694Z,2.37
2023-03-17T21:22:58.767Z,3.37
2023-03-17T21:25:26.877Z,3.33
2023-03-17T21:27:54.896Z,3.07
2023-03-17T21:30:22.943Z,2.50
2023-03-17T21:32:51.047Z,2.20
2023-03-17T21:35:19.383Z,2.20
2023-03-17T21:37:47.394Z,1.97
2023-03-17T21:40:17.314Z,2.00
2023-03-17T21:42:45.828Z,2.00
2023-03-17T21:45:14.212Z,2.30
2023-03-17T21:47:42.617Z,1.90
2023-03-17T21:50:12.325Z,1.90
2023-03-17T21:52:40.495Z,2.07
2023-03-17T21:55:10.181Z,2.13
2023-03-17T21:57:39.616Z,1.73
2023-03-17T22:00:10.596Z,2.17
2023-03-17T22:02:42.811Z,2.17
2023-03-17T22:05:11.858Z,1.70
2023-03-17T22:07:41.010Z,2.40
2023-03-17T22:10:11.329Z,1.93
2023-03-17T22:12:40.806Z,2.17
2023-03-17T22:15:10.545Z,2.57
2023-03-17T22:17:39.660Z,2.13
2023-03-17T22:20:09.088Z,2.03
2023-03-17T22:22:37.306Z,1.87
2023-03-17T22:25:06.985Z,2.17
2023-03-17T22:27:35.384Z,2.10
2023-03-17T22:30:06.312Z,1.70
2023-03-17T22:32:34.442Z,1.73
2023-03-17T22:35:02.751Z,1.90
2023-03-17T22:37:31.232Z,2.43
2023-03-17T22:40:02.410Z,2.10
2023-03-17T22:42:31.026Z,2.33
2023-03-17T22:44:59.348Z,2.10
2023-03-17T22:47:29.914Z,2.13
2023-03-17T22:49:57.930Z,2.13
2023-03-17T22:52:26.044Z,1.80
2023-03-17T22:54:54.269Z,2.00
2023-03-17T22:57:22.334Z,2.37
2023-03-17T22:59:52.166Z,2.27
2023-03-17T23:02:20.889Z,2.07
2023-03-17T23:04:50.556Z,2.20
2023-03-17T23:07:18.897Z,2.13
2023-03-17T23:09:47.100Z,2.50
2023-03-17T23:12:15.745Z,2.50
2023-03-17T23:14:43.911Z,3.30
2023-03-17T23:17:13.120Z,2.87
2023-03-17T23:19:41.138Z,2.77
2023-03-17T23:22:11.235Z,2.10
2023-03-17T23:24:39.296Z,2.13
2023-03-17T23:27:07.898Z,1.70
2023-03-17T23:29:35.907Z,2.00
2023-03-17T23:32:04.209Z,1.80
2023-03-17T23:34:32.550Z,2.00
2023-03-17T23:37:00.888Z,1.73
2023-03-17T23:39:30.268Z,2.23
2023-03-17T23:41:58.417Z,1.60
2023-03-17T23:44:27.197Z,1.50
2023-03-17T23:46:55.576Z,1.40
2023-03-17T23:49:23.630Z,1.37
2023-03-17T23:51:52.137Z,1.40
2023-03-17T23:54:20.279Z,1.90
2023-03-17T23:56:49.678Z,1.50
2023-03-17T23:59:17.741Z,1.40
